Time;durP1;ratioP1;P1;durP2;ratioP2;P2;SDS_P1;SDS_P2;PMS_P1;PMS_P2;Temp;Humidity;BMP_temperature;BMP_pressure;BME280_temperature;BME280_humidity;BME280_pressure;Samples;Min_cycle;Max_cycle;Signal;HPM_P1;HPM_P2
2024/02/02 00:01:21;;;;;;;16.13;4.00;;;6.20;99.90;;;;;;5032283;28;20470;-83
2024/02/02 00:03:46;;;;;;;19.43;3.67;;;6.20;99.90;;;;;;5033339;28;20481;-82
2024/02/02 00:06:12;;;;;;;22.87;4.00;;;6.20;99.90;;;;;;5032442;28;20378;-83
2024/02/02 00:08:38;;;;;;;20.30;4.00;;;6.20;99.90;;;;;;5033068;28;20116;-83
2024/02/02 00:11:05;;;;;;;19.40;4.93;;;6.20;99.90;;;;;;5033404;28;20041;-82
2024/02/02 00:13:31;;;;;;;21.13;4.07;;;6.20;99.90;;;;;;5032027;28;20044;-82
2024/02/02 00:15:57;;;;;;;24.13;4.73;;;6.20;99.90;;;;;;5032019;28;20029;-83
2024/02/02 00:18:22;;;;;;;18.17;4.60;;;6.30;99.90;;;;;;5032078;28;20017;-82
2024/02/02 00:20:48;;;;;;;23.27;4.33;;;6.20;99.90;;;;;;5031828;28;20025;-82
2024/02/02 00:23:14;;;;;;;22.73;5.47;;;6.20;99.90;;;;;;5033349;28;20049;-82
2024/02/02 00:25:39;;;;;;;20.10;4.40;;;6.20;99.90;;;;;;5031982;28;20556;-82
2024/02/02 00:28:05;;;;;;;19.73;4.83;;;6.20;99.90;;;;;;5031687;28;20033;-83
2024/02/02 00:30:34;;;;;;;23.63;5.10;;;6.30;99.90;;;;;;5031803;28;20025;-82
2024/02/02 00:33:02;;;;;;;19.37;4.80;;;6.20;99.90;;;;;;5031212;28;20021;-83
2024/02/02 00:35:28;;;;;;;21.00;5.47;;;6.30;99.90;;;;;;5031682;28;20029;-83
2024/02/02 00:37:54;;;;;;;16.00;4.80;;;6.30;99.90;;;;;;5033122;28;20025;-82
2024/02/02 00:40:19;;;;;;;15.40;5.27;;;6.20;99.90;;;;;;5031798;28;20474;-81
2024/02/02 00:42:47;;;;;;;19.53;5.87;;;6.30;99.90;;;;;;5014487;28;20382;-82
2024/02/02 00:45:13;;;;;;;13.30;4.30;;;6.30;99.90;;;;;;5033843;28;20032;-82
2024/02/02 00:47:39;;;;;;;14.40;4.87;;;6.30;99.90;;;;;;5033173;28;20497;-83
2024/02/02 00:50:05;;;;;;;16.63;4.83;;;6.30;99.90;;;;;;5031746;28;20070;-82
2024/02/02 00:52:34;;;;;;;19.67;5.33;;;6.30;99.90;;;;;;5033252;28;20021;-83
2024/02/02 00:55:01;;;;;;;25.67;5.73;;;6.30;99.90;;;;;;5033683;28;20038;-82
2024/02/02 00:57:28;;;;;;;19.13;5.70;;;6.30;99.90;;;;;;5032554;28;20028;-82
2024/02/02 00:59:54;;;;;;;21.87;7.13;;;6.30;99.90;;;;;;5031595;28;20021;-83
2024/02/02 01:02:20;;;;;;;19.40;5.20;;;6.30;99.90;;;;;;5031650;28;20021;-82
2024/02/02 01:04:46;;;;;;;25.73;5.07;;;6.40;99.90;;;;;;5032927;28;20075;-82
2024/02/02 01:07:18;;;;;;;22.70;5.80;;;6.30;99.90;;;;;;5032286;28;20033;-82
2024/02/02 01:09:44;;;;;;;20.80;5.90;;;6.30;99.90;;;;;;5031510;28;20025;-82
2024/02/02 01:12:10;;;;;;;14.97;4.57;;;6.40;99.90;;;;;;5031553;28;20116;-82
2024/02/02 01:14:40;;;;;;;25.37;5.77;;;6.40;99.90;;;;;;5031509;28;20134;-82
2024/02/02 01:17:09;;;;;;;17.50;5.03;;;6.40;99.90;;;;;;5032039;28;20548;-82
2024/02/02 01:19:37;;;;;;;18.90;4.33;;;6.40;99.90;;;;;;5032035;28;20481;-82
2024/02/02 01:22:04;;;;;;;22.17;5.03;;;6.40;99.90;;;;;;5031372;28;20028;-83
2024/02/02 01:24:30;;;;;;;21.40;5.40;;;6.40;99.90;;;;;;5031390;28;20018;-82
2024/02/02 01:26:56;;;;;;;29.53;5.30;;;6.40;99.90;;;;;;5031494;28;20053;-82
2024/02/02 01:29:23;;;;;;;21.70;5.57;;;6.40;99.90;;;;;;5031396;28;20107;-82
2024/02/02 01:31:48;;;;;;;16.17;4.90;;;6.40;99.90;;;;;;5032521;28;20025;-82
2024/02/02 01:34:14;;;;;;;17.07;4.33;;;6.40;99.90;;;;;;5032031;28;20100;-82
2024/02/02 01:36:39;;;;;;;21.27;4.73;;;6.40;99.90;;;;;;5032487;28;20026;-82
2024/02/02 01:39:11;;;;;;;21.53;4.60;;;6.50;99.90;;;;;;5031167;28;20014;-82
2024/02/02 01:41:40;;;;;;;23.00;4.60;;;6.40;99.90;;;;;;5032273;28;20046;-82
2024/02/02 01:44:06;;;;;;;16.77;4.10;;;6.50;99.90;;;;;;5033988;28;20026;-82
2024/02/02 01:46:32;;;;;;;15.67;4.23;;;6.50;99.90;;;;;;5035981;28;20025;-83
2024/02/02 01:48:58;;;;;;;22.50;4.50;;;6.50;99.90;;;;;;5034464;28;20079;-82
2024/02/02 01:51:24;;;;;;;19.77;4.43;;;6.60;99.90;;;;;;5035944;28;20025;-81
2024/02/02 01:53:51;;;;;;;16.00;5.10;;;6.60;99.90;;;;;;5034544;28;20048;-81
2024/02/02 01:56:17;;;;;;;16.43;4.13;;;6.60;99.90;;;;;;5030350;28;20025;-82
2024/02/02 01:58:43;;;;;;;19.10;4.63;;;6.50;99.90;;;;;;5025441;28;20781;-81
2024/02/02 02:01:08;;;;;;;14.27;3.80;;;6.60;99.90;;;;;;5044168;28;20080;-83
2024/02/02 02:03:34;;;;;;;18.03;4.57;;;6.60;99.90;;;;;;5015888;28;20492;-81
2024/02/02 02:06:01;;;;;;;18.73;4.40;;;6.60;99.90;;;;;;5015967;28;20026;-82
2024/02/02 02:08:26;;;;;;;21.27;5.17;;;6.60;99.90;;;;;;5015828;28;20061;-82
2024/02/02 02:10:52;;;;;;;17.43;4.40;;;6.60;99.90;;;;;;5014488;28;20049;-82
2024/02/02 02:13:18;;;;;;;23.00;5.17;;;6.60;99.90;;;;;;5015888;28;20032;-83
2024/02/02 02:15:44;;;;;;;21.50;4.83;;;6.60;99.90;;;;;;5015885;28;20038;-82
2024/02/02 02:18:11;;;;;;;20.97;4.80;;;6.60;99.90;;;;;;5014205;28;20466;-83
2024/02/02 02:20:38;;;;;;;15.63;4.27;;;6.60;99.90;;;;;;5018166;28;20549;-81
2024/02/02 02:23:04;;;;;;;25.43;5.47;;;6.60;99.90;;;;;;5031741;28;20032;-82
2024/02/02 02:25:32;;;;;;;23.47;4.97;;;6.60;99.90;;;;;;5034119;28;20116;-83
2024/02/02 02:27:57;;;;;;;17.27;5.90;;;6.60;99.90;;;;;;5033989;28;20026;-82
2024/02/02 02:30:23;;;;;;;21.97;5.63;;;6.60;99.90;;;;;;5035589;28;20032;-82
2024/02/02 02:32:49;;;;;;;18.43;5.03;;;6.60;99.90;;;;;;5035146;28;20026;-81
2024/02/02 02:35:14;;;;;;;17.43;4.50;;;6.60;99.90;;;;;;5035083;28;20033;-81
2024/02/02 02:37:40;;;;;;;15.40;4.40;;;6.60;99.90;;;;;;5035160;28;20067;-82
2024/02/02 02:40:06;;;;;;;18.70;5.43;;;6.60;99.90;;;;;;5035128;28;20053;-82
2024/02/02 02:42:33;;;;;;;21.90;5.30;;;6.60;99.90;;;;;;5034960;28;20462;-82
2024/02/02 02:44:59;;;;;;;31.80;5.67;;;6.60;99.90;;;;;;5033601;28;20108;-81
2024/02/02 02:47:24;;;;;;;18.07;5.00;;;6.60;99.90;;;;;;5033068;28;20502;-82
2024/02/02 02:49:50;;;;;;;18.77;5.57;;;6.60;99.90;;;;;;5033753;28;20547;-81
2024/02/02 02:52:16;;;;;;;18.50;4.70;;;6.60;99.90;;;;;;5033698;28;20025;-81
2024/02/02 02:54:41;;;;;;;24.27;5.73;;;6.70;99.90;;;;;;5034272;28;20025;-81
2024/02/02 02:57:07;;;;;;;23.73;6.07;;;6.70;99.90;;;;;;5033475;28;20064;-80
2024/02/02 02:59:33;;;;;;;23.67;6.60;;;6.70;99.90;;;;;;5034999;28;20112;-81
2024/02/02 03:01:59;;;;;;;18.23;5.57;;;6.70;99.90;;;;;;5034508;28;20096;-82
2024/02/02 03:04:25;;;;;;;16.73;4.97;;;6.70;99.90;;;;;;5033338;28;20446;-81
2024/02/02 03:06:51;;;;;;;23.77;5.57;;;6.70;99.90;;;;;;5030888;28;20030;-81
2024/02/02 03:09:16;;;;;;;14.20;4.90;;;6.60;99.90;;;;;;5038391;28;20017;-82
2024/02/02 03:11:42;;;;;;;16.90;5.37;;;6.60;99.90;;;;;;5015311;28;20022;-82
2024/02/02 03:14:08;;;;;;;20.43;6.40;;;6.60;99.90;;;;;;5013755;28;20504;-82
2024/02/02 03:16:33;;;;;;;19.57;5.40;;;6.60;99.90;;;;;;5014395;28;20029;-81
2024/02/02 03:18:59;;;;;;;18.23;5.00;;;6.60;99.90;;;;;;5014262;28;20036;-82
2024/02/02 03:21:25;;;;;;;17.50;6.90;;;6.60;99.90;;;;;;5014558;28;20026;-81
2024/02/02 03:23:50;;;;;;;21.60;7.03;;;6.60;99.90;;;;;;5014402;28;20026;-81
2024/02/02 03:26:16;;;;;;;22.50;8.23;;;6.70;99.90;;;;;;5013332;28;20021;-82
2024/02/02 03:28:42;;;;;;;23.70;7.63;;;6.60;99.90;;;;;;5013124;28;20390;-81
2024/02/02 03:31:07;;;;;;;21.50;7.97;;;6.60;99.90;;;;;;5012918;28;20482;-81
2024/02/02 03:33:33;;;;;;;19.87;7.50;;;6.60;99.90;;;;;;5012878;28;20474;-81
2024/02/02 03:35:59;;;;;;;19.67;6.97;;;6.60;99.90;;;;;;5013346;28;20065;-81
2024/02/02 03:38:24;;;;;;;25.23;8.10;;;6.50;99.90;;;;;;5013013;28;20041;-82
2024/02/02 03:40:50;;;;;;;23.03;8.03;;;6.50;99.90;;;;;;5013884;28;20025;-81
2024/02/02 03:43:16;;;;;;;27.60;8.47;;;6.40;99.90;;;;;;5013120;28;20026;-82
2024/02/02 03:45:41;;;;;;;21.60;7.60;;;6.40;99.90;;;;;;5012778;28;20022;-82
2024/02/02 03:48:07;;;;;;;21.10;7.43;;;6.40;99.90;;;;;;5013741;28;20026;-82
2024/02/02 03:50:33;;;;;;;18.43;7.30;;;6.40;99.90;;;;;;5014107;28;20033;-81
2024/02/02 03:53:00;;;;;;;23.07;7.57;;;6.30;99.90;;;;;;5014117;28;20025;-81
2024/02/02 03:55:26;;;;;;;21.67;8.10;;;6.30;99.90;;;;;;5012447;28;20021;-81
2024/02/02 03:57:52;;;;;;;20.50;7.07;;;6.30;99.90;;;;;;5014348;28;20028;-81
2024/02/02 04:00:18;;;;;;;17.40;6.60;;;6.30;99.90;;;;;;5012569;28;20105;-81
2024/02/02 04:02:47;;;;;;;18.50;8.03;;;6.30;99.90;;;;;;5012523;28;20042;-81
2024/02/02 04:05:15;;;;;;;22.33;7.53;;;6.30;99.90;;;;;;5012409;28;20026;-83
2024/02/02 04:07:41;;;;;;;25.70;7.67;;;6.30;99.90;;;;;;5012242;28;20033;-83
2024/02/02 04:10:08;;;;;;;20.83;7.07;;;6.30;99.90;;;;;;5012539;28;20049;-81
2024/02/02 04:12:34;;;;;;;20.00;8.53;;;6.30;99.90;;;;;;5012483;28;20417;-81
2024/02/02 04:15:00;;;;;;;21.67;8.00;;;6.20;99.90;;;;;;5012138;28;20033;-82
2024/02/02 04:17:26;;;;;;;23.03;7.60;;;6.30;99.90;;;;;;5013505;28;20026;-81
2024/02/02 04:19:51;;;;;;;24.10;7.87;;;6.30;99.90;;;;;;5013557;28;20059;-83
2024/02/02 04:22:17;;;;;;;19.17;7.33;;;6.30;99.90;;;;;;5013918;28;20022;-82
2024/02/02 04:24:46;;;;;;;28.03;8.43;;;6.30;99.90;;;;;;5012115;28;20104;-81
2024/02/02 04:27:12;;;;;;;22.00;6.97;;;6.30;99.90;;;;;;5012363;28;20034;-83
2024/02/02 04:29:38;;;;;;;21.60;6.73;;;6.30;99.90;;;;;;5013111;28;20075;-81
2024/02/02 04:32:04;;;;;;;17.23;6.47;;;6.40;99.90;;;;;;5012245;28;20030;-83
2024/02/02 04:34:30;;;;;;;22.07;7.27;;;6.40;99.90;;;;;;5013473;28;20040;-81
2024/02/02 04:36:56;;;;;;;20.63;6.67;;;6.30;99.90;;;;;;5012223;28;20474;-81
2024/02/02 04:39:22;;;;;;;22.23;6.70;;;6.40;99.90;;;;;;5012794;28;20026;-82
2024/02/02 04:41:47;;;;;;;25.87;7.10;;;6.40;99.90;;;;;;5012879;28;20125;-81
2024/02/02 04:44:13;;;;;;;19.27;6.00;;;6.40;99.90;;;;;;5013159;28;20367;-81
2024/02/02 04:46:39;;;;;;;15.80;5.80;;;6.40;99.90;;;;;;5011606;28;20362;-81
2024/02/02 04:49:04;;;;;;;17.33;5.93;;;6.40;99.90;;;;;;5012088;28;20033;-82
2024/02/02 04:51:30;;;;;;;25.73;7.00;;;6.40;99.90;;;;;;5011928;28;20549;-81
2024/02/02 04:53:56;;;;;;;17.53;5.57;;;6.40;99.90;;;;;;5011734;28;20025;-81
2024/02/02 04:56:23;;;;;;;21.57;6.17;;;6.40;99.90;;;;;;5011799;28;20022;-82
2024/02/02 04:58:51;;;;;;;20.77;6.40;;;6.40;99.90;;;;;;5011827;28;20064;-80
2024/02/02 05:01:19;;;;;;;21.10;5.80;;;6.30;99.90;;;;;;5011931;28;20021;-81
2024/02/02 05:03:47;;;;;;;22.90;7.00;;;6.30;99.90;;;;;;5013054;28;20032;-84
2024/02/02 05:06:16;;;;;;;23.90;7.13;;;6.30;99.90;;;;;;5011348;28;20120;-82
2024/02/02 05:08:43;;;;;;;20.43;6.03;;;6.30;99.90;;;;;;5013137;28;20049;-82
2024/02/02 05:11:10;;;;;;;21.70;6.60;;;6.30;99.90;;;;;;5012991;28;20424;-82
2024/02/02 05:13:36;;;;;;;17.80;5.20;;;6.30;99.90;;;;;;5013359;28;20022;-83
2024/02/02 05:16:02;;;;;;;20.97;5.73;;;6.30;99.90;;;;;;5013355;28;20390;-82
2024/02/02 05:18:27;;;;;;;16.90;5.10;;;6.40;99.90;;;;;;5015470;28;20474;-80
2024/02/02 05:20:53;;;;;;;21.47;5.43;;;6.30;99.90;;;;;;5016675;28;20518;-82
2024/02/02 05:23:19;;;;;;;25.10;5.93;;;6.30;99.90;;;;;;5017029;28;20478;-82
2024/02/02 05:25:44;;;;;;;18.87;5.33;;;6.30;99.90;;;;;;5016660;28;20105;-81
2024/02/02 05:28:10;;;;;;;22.20;5.10;;;6.30;99.90;;;;;;5015356;28;20041;-81
2024/02/02 05:30:37;;;;;;;15.97;4.40;;;6.30;99.90;;;;;;5016622;28;20136;-82
2024/02/02 05:33:03;;;;;;;18.07;5.00;;;6.30;99.90;;;;;;5018031;28;20033;-82
2024/02/02 05:35:29;;;;;;;22.10;6.13;;;6.30;99.90;;;;;;5028869;28;20416;-82
2024/02/02 05:37:55;;;;;;;18.83;4.80;;;6.30;99.90;;;;;;5034506;28;20029;-83
2024/02/02 05:40:20;;;;;;;16.00;4.13;;;6.30;99.90;;;;;;5034640;28;20061;-81
2024/02/02 05:42:46;;;;;;;14.47;4.20;;;6.30;99.90;;;;;;5035728;28;20049;-84
2024/02/02 05:45:12;;;;;;;17.50;4.27;;;6.30;99.90;;;;;;5034934;28;20022;-82
2024/02/02 05:47:37;;;;;;;20.27;4.80;;;6.30;99.90;;;;;;5036172;28;20076;-82
2024/02/02 05:50:03;;;;;;;18.60;4.33;;;6.30;99.90;;;;;;5035894;28;20060;-81
2024/02/02 05:52:29;;;;;;;17.13;4.87;;;6.30;99.90;;;;;;5035883;28;20151;-81
2024/02/02 05:54:55;;;;;;;21.37;4.73;;;6.20;99.90;;;;;;5035651;28;20120;-82
2024/02/02 05:57:20;;;;;;;16.10;4.53;;;6.20;99.90;;;;;;5036143;28;20026;-82
2024/02/02 05:59:46;;;;;;;23.73;4.23;;;6.20;99.90;;;;;;5034729;28;20477;-82
2024/02/02 06:02:12;;;;;;;17.13;4.23;;;6.20;99.90;;;;;;5035969;28;20385;-83
2024/02/02 06:04:37;;;;;;;17.60;4.40;;;6.20;99.90;;;;;;5034615;28;20477;-82
2024/02/02 06:07:03;;;;;;;19.47;4.07;;;6.20;99.90;;;;;;5035451;28;20060;-82
2024/02/02 06:09:29;;;;;;;17.43;3.37;;;6.20;99.90;;;;;;5025761;28;20021;-81
2024/02/02 06:11:54;;;;;;;19.03;4.17;;;6.20;99.90;;;;;;5035670;28;20033;-82
2024/02/02 06:14:20;;;;;;;18.00;4.07;;;6.20;99.90;;;;;;5034214;28;20102;-81
2024/02/02 06:16:47;;;;;;;25.73;4.40;;;6.20;99.90;;;;;;5035571;28;20075;-82
2024/02/02 06:19:13;;;;;;;16.90;3.83;;;6.20;99.90;;;;;;5035668;28;20027;-83
2024/02/02 06:21:39;;;;;;;19.43;4.43;;;6.20;99.90;;;;;;5034389;28;20013;-82
2024/02/02 06:24:07;;;;;;;21.37;3.43;;;6.20;99.90;;;;;;5035373;28;20022;-82
2024/02/02 06:26:33;;;;;;;16.17;4.47;;;6.20;99.90;;;;;;5035292;28;20101;-82
2024/02/02 06:28:59;;;;;;;18.87;3.93;;;6.20;99.90;;;;;;5033925;28;20045;-83
2024/02/02 06:31:25;;;;;;;19.63;4.03;;;6.20;99.90;;;;;;5035167;28;20026;-82
2024/02/02 06:33:51;;;;;;;12.73;3.97;;;6.30;99.90;;;;;;5034073;28;20115;-82
2024/02/02 06:36:17;;;;;;;16.40;3.03;;;6.30;99.90;;;;;;5035438;28;20108;-82
2024/02/02 06:38:43;;;;;;;12.20;3.23;;;6.30;99.90;;;;;;5034861;28;20122;-83
2024/02/02 06:41:10;;;;;;;16.13;3.97;;;6.30;99.90;;;;;;5033890;28;20497;-82
2024/02/02 06:43:37;;;;;;;18.37;3.90;;;6.30;99.90;;;;;;5033907;28;20156;-82
2024/02/02 06:46:03;;;;;;;22.53;4.80;;;6.40;99.90;;;;;;5033795;28;20489;-82
2024/02/02 06:48:28;;;;;;;19.37;4.20;;;6.30;99.90;;;;;;5032726;28;20110;-81
2024/02/02 06:50:54;;;;;;;22.73;4.27;;;6.30;99.90;;;;;;5035180;28;20052;-81
2024/02/02 06:53:20;;;;;;;24.13;3.87;;;6.30;99.90;;;;;;5035330;28;20018;-82
2024/02/02 06:55:48;;;;;;;22.33;3.93;;;6.30;99.90;;;;;;5033408;28;20028;-82
2024/02/02 06:58:40;;;;;;;15.63;3.77;;;6.40;99.90;;;;;;5033578;28;20033;-82
2024/02/02 07:01:06;;;;;;;21.33;4.20;;;6.40;99.90;;;;;;5034545;28;20029;-82
2024/02/02 07:03:32;;;;;;;26.83;5.23;;;6.40;99.90;;;;;;5034882;28;20095;-83
2024/02/02 07:05:58;;;;;;;17.67;4.37;;;6.40;99.90;;;;;;5033466;28;20477;-82
2024/02/02 07:08:24;;;;;;;19.17;3.97;;;6.40;99.90;;;;;;5033035;28;20095;-82
2024/02/02 07:11:07;;;;;;;16.73;3.60;;;6.40;99.90;;;;;;5033207;28;20025;-83
2024/02/02 07:13:46;;;;;;;20.93;4.97;;;6.40;99.90;;;;;;5034036;28;20036;-83
2024/02/02 07:16:29;;;;;;;21.07;4.27;;;6.50;99.90;;;;;;5032517;28;20036;-82
2024/02/02 07:18:55;;;;;;;18.90;3.77;;;6.50;99.90;;;;;;5031770;28;20064;-83
2024/02/02 07:21:30;;;;;;;26.50;4.80;;;6.50;99.90;;;;;;5024015;28;20038;-83
2024/02/02 07:23:57;;;;;;;18.57;5.10;;;6.50;99.90;;;;;;5031157;28;20030;-82
2024/02/02 07:26:29;;;;;;;21.77;4.90;;;6.50;99.90;;;;;;5028969;28;20021;-83
2024/02/02 07:28:55;;;;;;;26.83;5.83;;;6.50;99.90;;;;;;5024927;28;20053;-81
2024/02/02 07:31:37;;;;;;;19.00;6.10;;;6.50;99.90;;;;;;5022562;28;20041;-82
2024/02/02 07:34:25;;;;;;;27.00;5.37;;;6.60;99.90;;;;;;5048049;28;20070;-82
2024/02/02 07:36:50;;;;;;;26.57;5.20;;;6.60;99.90;;;;;;5025055;28;20068;-83
2024/02/02 07:39:30;;;;;;;19.30;6.00;;;6.60;99.90;;;;;;5024453;28;20065;-82
2024/02/02 07:41:57;;;;;;;28.63;5.73;;;6.60;99.90;;;;;;5021781;28;20034;-82
2024/02/02 07:44:23;;;;;;;29.30;6.67;;;6.60;99.90;;;;;;5014506;28;20068;-83
2024/02/02 07:46:49;;;;;;;27.80;8.13;;;6.70;99.90;;;;;;5014669;28;20029;-82
2024/02/02 07:49:15;;;;;;;33.83;8.70;;;6.70;99.90;;;;;;5021880;28;20022;-83
2024/02/02 07:51:43;;;;;;;36.70;8.33;;;6.70;99.90;;;;;;5023686;28;20026;-83
2024/02/02 07:54:10;;;;;;;31.33;8.47;;;6.70;99.90;;;;;;5019710;28;20431;-83
2024/02/02 07:56:36;;;;;;;33.40;8.90;;;6.70;99.90;;;;;;5014207;28;20029;-82
2024/02/02 07:59:02;;;;;;;26.47;9.10;;;6.70;99.90;;;;;;5030591;28;20393;-83
2024/02/02 08:01:31;;;;;;;36.63;9.77;;;6.80;99.90;;;;;;5032573;28;20026;-83
2024/02/02 08:03:56;;;;;;;26.17;10.27;;;6.80;99.90;;;;;;5033676;28;20018;-85
2024/02/02 08:06:22;;;;;;;36.07;10.90;;;6.80;99.90;;;;;;5033483;28;20043;-82
2024/02/02 08:08:48;;;;;;;29.43;10.40;;;6.80;99.90;;;;;;5032176;28;20075;-85
2024/02/02 08:11:14;;;;;;;30.83;10.17;;;6.80;99.90;;;;;;5033504;28;20025;-83
2024/02/02 08:13:39;;;;;;;32.40;10.33;;;6.80;99.90;;;;;;5032656;28;20071;-83
2024/02/02 08:16:05;;;;;;;38.27;12.43;;;6.90;99.90;;;;;;5033256;28;20104;-84
2024/02/02 08:18:31;;;;;;;33.67;13.20;;;6.90;99.90;;;;;;5033164;28;20025;-84
2024/02/02 08:20:58;;;;;;;36.87;12.37;;;6.90;99.90;;;;;;5021943;28;20018;-82
2024/02/02 08:23:25;;;;;;;34.63;12.43;;;6.90;99.90;;;;;;5028947;28;20032;-83
2024/02/02 08:25:51;;;;;;;31.93;11.37;;;7.00;99.90;;;;;;5033246;28;20125;-82
2024/02/02 08:28:16;;;;;;;33.10;11.83;;;7.00;99.90;;;;;;5033096;28;20061;-83
2024/02/02 08:30:42;;;;;;;31.37;11.40;;;7.00;99.90;;;;;;5033633;28;20079;-83
2024/02/02 08:33:08;;;;;;;36.83;12.90;;;7.00;99.90;;;;;;5031627;28;20049;-83
2024/02/02 08:35:34;;;;;;;32.63;11.37;;;7.00;99.90;;;;;;5023263;28;20065;-81
2024/02/02 08:38:02;;;;;;;29.00;11.03;;;7.10;99.90;;;;;;5031941;28;20040;-83
2024/02/02 08:40:43;;;;;;;32.20;11.70;;;7.10;99.90;;;;;;5033002;28;20026;-84
2024/02/02 08:43:23;;;;;;;34.87;10.40;;;7.10;99.90;;;;;;5033161;28;20386;-83
2024/02/02 08:46:12;;;;;;;33.13;11.90;;;7.10;99.90;;;;;;5029332;28;20029;-83
2024/02/02 08:48:45;;;;;;;27.60;10.60;;;7.20;99.90;;;;;;5030392;28;20025;-82
2024/02/02 08:51:23;;;;;;;27.93;11.00;;;7.10;99.90;;;;;;5031663;28;20056;-82
2024/02/02 08:54:11;;;;;;;37.27;12.37;;;7.20;99.90;;;;;;5032209;28;20446;-82
2024/02/02 08:56:37;;;;;;;25.33;10.47;;;7.20;99.90;;;;;;4991953;28;20500;-83
2024/02/02 08:59:28;;;;;;;27.87;11.03;;;7.30;99.90;;;;;;5031245;28;20034;-85
2024/02/02 09:01:54;;;;;;;29.90;9.93;;;7.30;99.90;;;;;;5014580;28;20121;-83
2024/02/02 09:04:37;;;;;;;31.80;9.50;;;7.30;99.90;;;;;;5031291;28;20486;-82
2024/02/02 09:07:03;;;;;;;20.20;9.20;;;7.30;99.90;;;;;;5033033;28;20470;-83
2024/02/02 09:09:29;;;;;;;35.27;11.03;;;7.40;99.90;;;;;;5031391;28;20091;-83
2024/02/02 09:11:56;;;;;;;25.13;11.07;;;7.40;99.90;;;;;;5032613;28;20029;-82
2024/02/02 09:14:23;;;;;;;31.73;11.70;;;7.40;99.90;;;;;;5033288;28;20068;-84
2024/02/02 09:16:52;;;;;;;42.47;12.27;;;7.40;99.90;;;;;;5031430;28;20022;-82
2024/02/02 09:19:33;;;;;;;25.80;10.03;;;7.50;99.90;;;;;;5032500;28;20117;-82
2024/02/02 09:22:06;;;;;;;31.03;11.03;;;7.50;99.90;;;;;;5031524;28;20014;-82
2024/02/02 09:24:40;;;;;;;31.50;11.48;;;7.50;99.90;;;;;;5032565;28;20041;-82
2024/02/02 09:27:11;;;;;;;30.67;11.30;;;7.50;99.90;;;;;;5031406;28;20223;-83
2024/02/02 09:29:46;;;;;;;28.80;10.33;;;7.60;99.90;;;;;;5032945;28;20040;-82
2024/02/02 09:32:14;;;;;;;32.43;12.17;;;7.60;99.90;;;;;;5032402;28;20021;-82
2024/02/02 09:34:41;;;;;;;36.70;11.77;;;7.60;99.90;;;;;;5027415;28;20092;-82
2024/02/02 09:37:22;;;;;;;29.53;11.23;;;7.60;99.90;;;;;;5011435;28;20034;-81
2024/02/02 09:39:52;;;;;;;37.03;13.33;;;7.60;99.90;;;;;;5012888;28;20026;-82
2024/02/02 09:42:29;;;;;;;33.03;12.10;;;7.70;99.90;;;;;;5012806;28;20045;-82
2024/02/02 09:45:07;;;;;;;38.00;13.27;;;7.70;99.90;;;;;;5011688;28;20041;-83
2024/02/02 09:48:03;;;;;;;35.37;12.70;;;7.70;99.90;;;;;;5011824;28;20038;-83
2024/02/02 09:50:48;;;;;;;38.07;12.37;;;7.80;99.90;;;;;;5012891;28;20030;-82
2024/02/02 09:53:40;;;;;;;35.03;11.32;;;7.80;99.90;;;;;;5016927;28;20026;-81
2024/02/02 09:56:27;;;;;;;51.50;15.20;;;7.80;99.90;;;;;;5022058;28;20032;-82
2024/02/02 09:59:19;;;;;;;31.67;13.03;;;7.90;99.90;;;;;;5022724;28;20079;-82
2024/02/02 10:01:47;;;;;;;28.03;11.20;;;7.90;99.90;;;;;;5001611;28;20379;-84
2024/02/02 10:04:36;;;;;;;29.60;12.77;;;7.90;99.90;;;;;;5033775;28;20044;-82
2024/02/02 10:07:02;;;;;;;36.17;13.47;;;7.90;99.90;;;;;;5035867;28;20028;-82
2024/02/02 10:09:52;;;;;;;37.27;13.57;;;8.00;99.90;;;;;;5034120;28;20033;-81
2024/02/02 10:12:57;;;;;;;25.53;12.30;;;8.00;99.90;;;;;;5034307;28;20029;-83
2024/02/02 10:15:38;;;;;;;32.23;13.97;;;8.00;99.90;;;;;;5034276;28;20370;-82
2024/02/02 10:18:32;;;;;;;27.63;13.80;;;8.10;99.90;;;;;;5034362;28;20033;-82
2024/02/02 10:21:19;;;;;;;30.63;12.70;;;8.10;99.90;;;;;;5035493;28;20017;-83
2024/02/02 10:23:56;;;;;;;31.00;14.20;;;8.10;99.90;;;;;;5035298;28;20029;-82
2024/02/02 10:26:58;;;;;;;34.17;13.23;;;8.10;99.90;;;;;;5033965;28;20383;-82
2024/02/02 10:30:05;;;;;;;38.33;15.17;;;8.10;99.90;;;;;;5013920;28;20080;-82
2024/02/02 10:32:31;;;;;;;33.03;13.17;;;8.20;99.90;;;;;;5035142;28;20028;-82
2024/02/02 10:35:19;;;;;;;29.93;12.73;;;8.20;99.90;;;;;;5035255;28;20388;-81
2024/02/02 10:37:49;;;;;;;46.93;13.73;;;8.20;99.90;;;;;;5033797;28;20084;-81
2024/02/02 10:40:39;;;;;;;30.33;12.03;;;8.20;99.90;;;;;;5035286;28;20025;-84
2024/02/02 10:43:28;;;;;;;37.20;13.27;;;8.20;99.90;;;;;;5027750;28;20052;-82
2024/02/02 10:46:01;;;;;;;28.93;13.10;;;8.30;99.90;;;;;;5033471;28;20731;-83
2024/02/02 10:48:52;;;;;;;35.97;13.63;;;8.40;99.90;;;;;;5032033;28;20038;-84
2024/02/02 10:51:51;;;;;;;26.00;12.87;;;8.30;99.90;;;;;;5033921;28;20052;-83
2024/02/02 10:55:04;;;;;;;35.80;13.63;;;8.40;99.90;;;;;;5033138;28;20017;-84
2024/02/02 10:58:05;;;;;;;37.27;14.70;;;8.40;99.90;;;;;;5011226;28;20121;-83
2024/02/02 11:00:42;;;;;;;36.10;12.20;;;8.50;99.90;;;;;;5024140;28;20035;-83
2024/02/02 11:03:21;;;;;;;37.00;13.60;;;8.50;99.90;;;;;;5020290;28;20454;-83
2024/02/02 11:06:06;;;;;;;31.40;13.07;;;8.50;99.90;;;;;;5023024;28;20033;-87
2024/02/02 11:08:38;;;;;;;32.80;14.27;;;8.50;99.90;;;;;;5025405;28;20021;-81
2024/02/02 11:11:21;;;;;;;28.03;13.07;;;8.50;99.90;;;;;;5024124;28;20017;-81
2024/02/02 11:14:09;;;;;;;30.20;13.63;;;8.60;99.90;;;;;;5025029;28;20060;-83
2024/02/02 11:16:48;;;;;;;35.17;14.97;;;8.60;99.90;;;;;;5025414;28;20052;-82
2024/02/02 11:19:20;;;;;;;37.07;15.43;;;8.60;99.90;;;;;;5026231;28;20133;-83
2024/02/02 11:21:46;;;;;;;36.37;14.13;;;8.60;99.90;;;;;;5025202;28;20020;-84
2024/02/02 11:24:36;;;;;;;38.30;15.63;;;8.60;99.90;;;;;;5023172;28;20109;-82
2024/02/02 11:27:06;;;;;;;38.23;14.73;;;8.60;99.90;;;;;;5025296;28;20061;-83
2024/02/02 11:29:56;;;;;;;41.93;15.37;;;8.60;99.90;;;;;;5026275;28;20075;-82
2024/02/02 11:32:39;;;;;;;43.07;17.10;;;8.60;99.90;;;;;;5026537;28;20060;-84
2024/02/02 11:35:19;;;;;;;33.60;15.53;;;8.70;99.90;;;;;;5022105;28;20193;-83
2024/02/02 11:38:01;;;;;;;31.87;14.03;;;8.70;99.90;;;;;;5024754;28;20026;-82
2024/02/02 11:40:28;;;;;;;35.77;14.27;;;8.70;99.90;;;;;;5025856;28;20021;-85
2024/02/02 11:42:58;;;;;;;30.43;14.60;;;8.80;99.90;;;;;;5028446;28;20056;-82
2024/02/02 11:45:28;;;;;;;29.63;16.13;;;8.80;99.90;;;;;;5019823;28;20061;-83
2024/02/02 11:48:03;;;;;;;35.43;14.80;;;8.80;99.90;;;;;;5020245;28;20034;-82
2024/02/02 11:50:55;;;;;;;29.60;13.90;;;8.80;99.90;;;;;;5015198;28;20030;-80
2024/02/02 11:53:40;;;;;;;35.03;15.00;;;8.80;99.90;;;;;;5009199;28;20034;-82
2024/02/02 11:56:31;;;;;;;32.13;14.37;;;8.90;99.90;;;;;;5022358;28;20033;-82
2024/02/02 11:59:06;;;;;;;34.77;14.40;;;8.90;99.90;;;;;;5034300;28;20029;-81
2024/02/02 12:01:59;;;;;;;33.47;14.20;;;8.90;99.90;;;;;;5025179;28;20025;-82
2024/02/02 12:04:42;;;;;;;31.90;14.20;;;8.90;99.90;;;;;;5022270;28;20037;-82
2024/02/02 12:07:26;;;;;;;39.63;14.87;;;8.90;99.90;;;;;;5025982;28;20025;-82
2024/02/02 12:10:00;;;;;;;34.22;13.32;;;8.90;99.90;;;;;;5020382;28;20118;-83
2024/02/02 12:12:36;;;;;;;39.30;14.47;;;8.90;99.90;;;;;;5017577;28;20022;-82
2024/02/02 12:15:02;;;;;;;34.00;13.63;;;8.90;99.90;;;;;;5026373;28;20037;-83
2024/02/02 12:17:29;;;;;;;31.50;14.47;;;8.90;99.90;;;;;;5033682;28;20029;-86
2024/02/02 12:19:57;;;;;;;34.50;14.10;;;8.90;99.90;;;;;;5032162;28;20029;-82
2024/02/02 12:22:23;;;;;;;32.63;14.20;;;8.90;99.90;;;;;;5033666;28;20469;-82
2024/02/02 12:24:49;;;;;;;34.10;13.40;;;8.90;99.90;;;;;;5032006;28;20432;-83
2024/02/02 12:27:15;;;;;;;30.10;13.73;;;8.90;99.90;;;;;;5030968;28;20029;-80
2024/02/02 12:29:41;;;;;;;41.00;14.57;;;8.80;99.90;;;;;;5033024;28;20029;-82
2024/02/02 12:32:10;;;;;;;34.37;13.27;;;8.90;99.90;;;;;;5033371;28;20485;-82
2024/02/02 12:34:37;;;;;;;32.03;13.87;;;8.90;99.90;;;;;;5031606;28;20034;-82
2024/02/02 12:37:04;;;;;;;33.33;13.07;;;8.90;99.90;;;;;;5033436;28;20109;-82
2024/02/02 12:39:36;;;;;;;39.50;15.53;;;8.90;99.90;;;;;;5031809;28;20369;-83
2024/02/02 12:42:03;;;;;;;39.53;16.30;;;8.90;99.90;;;;;;5031362;28;20041;-82
2024/02/02 12:44:32;;;;;;;41.10;18.10;;;8.90;99.90;;;;;;5033054;28;20030;-82
2024/02/02 12:46:59;;;;;;;38.77;17.97;;;8.90;99.90;;;;;;5033291;28;20025;-82
2024/02/02 12:49:25;;;;;;;37.37;16.43;;;8.90;99.90;;;;;;5031626;28;20028;-82
2024/02/02 12:51:56;;;;;;;43.90;17.33;;;8.90;99.90;;;;;;5021879;28;20026;-82
2024/02/02 12:54:22;;;;;;;41.33;17.60;;;8.90;99.90;;;;;;5024785;28;20014;-82
2024/02/02 12:56:47;;;;;;;42.33;17.30;;;9.00;99.90;;;;;;5032581;28;20029;-83
2024/02/02 12:59:17;;;;;;;38.17;16.43;;;8.90;99.90;;;;;;5031597;28;20037;-83